createdAt,value
2022-09-07T00:00:40.662Z,15.79
2022-09-07T00:01:43.782Z,15.80
2022-09-07T00:02:45.918Z,15.80
2022-09-07T00:03:49.205Z,15.81
2022-09-07T00:04:51.365Z,15.81
2022-09-07T00:05:54.431Z,15.81
2022-09-07T00:06:56.537Z,15.81
2022-09-07T00:08:00.181Z,15.81
2022-09-07T00:09:02.502Z,15.80
2022-09-07T00:10:05.980Z,15.81
2022-09-07T00:11:13.433Z,15.80
2022-09-07T00:12:16.537Z,15.80
2022-09-07T00:13:20.119Z,15.77
2022-09-07T00:14:23.294Z,15.80
2022-09-07T00:15:25.362Z,15.80
2022-09-07T00:16:30.420Z,15.79
2022-09-07T00:17:32.570Z,15.80
2022-09-07T00:18:35.751Z,15.80
2022-09-07T00:19:37.896Z,15.81
2022-09-07T00:20:40.928Z,15.81
2022-09-07T00:21:43.096Z,15.80
2022-09-07T00:22:46.595Z,15.81
2022-09-07T00:23:49.568Z,15.78
2022-09-07T00:24:52.678Z,15.81
2022-09-07T00:25:54.761Z,15.82
2022-09-07T00:26:57.869Z,15.80
2022-09-07T00:28:00.013Z,15.79
2022-09-07T00:29:06.324Z,15.82
2022-09-07T00:30:09.261Z,15.81
2022-09-07T00:31:14.001Z,15.81
2022-09-07T00:32:17.205Z,15.82
2022-09-07T00:33:19.244Z,15.82
2022-09-07T00:34:22.332Z,15.82
2022-09-07T00:35:24.444Z,15.81
2022-09-07T00:36:27.718Z,15.81
2022-09-07T00:37:29.785Z,15.79
2022-09-07T00:38:33.015Z,15.79
2022-09-07T00:39:35.231Z,15.81
2022-09-07T00:40:38.392Z,15.80
2022-09-07T00:41:40.485Z,15.80
2022-09-07T00:42:43.582Z,15.80
2022-09-07T00:43:48.239Z,15.79
2022-09-07T00:45:13.174Z,15.79
2022-09-07T00:46:20.649Z,15.78
2022-09-07T00:47:26.957Z,15.79
2022-09-07T00:48:35.396Z,15.78
2022-09-07T00:49:40.439Z,15.78
2022-09-07T00:50:47.545Z,15.77
2022-09-07T00:51:54.725Z,15.79
2022-09-07T00:53:02.746Z,15.77
2022-09-07T00:54:11.749Z,15.76
2022-09-07T00:55:16.541Z,15.76
2022-09-07T00:56:19.683Z,15.76
2022-09-07T00:57:21.880Z,15.76
2022-09-07T00:58:25.303Z,15.76
2022-09-07T00:59:31.135Z,15.76
2022-09-07T01:00:36.294Z,15.76
2022-09-07T01:01:39.284Z,15.75
2022-09-07T01:02:42.843Z,15.75
2022-09-07T01:03:50.001Z,15.76
2022-09-07T01:05:00.008Z,15.75
2022-09-07T01:06:07.260Z,15.76
2022-09-07T01:07:10.387Z,15.75
2022-09-07T01:08:14.177Z,15.75
2022-09-07T01:09:20.626Z,15.75
2022-09-07T01:10:25.426Z,15.76
2022-09-07T01:11:28.606Z,15.74
2022-09-07T01:12:31.014Z,15.74
2022-09-07T01:13:34.349Z,15.72
2022-09-07T01:14:41.204Z,15.76
2022-09-07T01:15:54.471Z,15.75
2022-09-07T01:17:06.133Z,15.75
2022-09-07T01:18:17.861Z,15.74
2022-09-07T01:19:44.023Z,15.74
2022-09-07T01:21:10.301Z,15.73
2022-09-07T01:22:36.499Z,15.74
2022-09-07T01:24:15.206Z,15.74
2022-09-07T01:25:31.219Z,15.74
2022-09-07T01:27:24.209Z,15.66
2022-09-07T01:28:29.747Z,15.75
2022-09-07T01:29:39.495Z,15.74
2022-09-07T01:30:50.827Z,15.74
2022-09-07T01:32:05.469Z,15.72
2022-09-07T01:33:24.079Z,15.74
2022-09-07T01:34:26.857Z,15.74
2022-09-07T01:35:35.806Z,15.73
2022-09-07T01:36:48.753Z,15.75
2022-09-07T01:37:57.921Z,15.74
2022-09-07T01:39:02.667Z,15.74
2022-09-07T01:40:12.919Z,15.75
2022-09-07T01:41:20.556Z,15.75
2022-09-07T01:42:32.092Z,15.74
2022-09-07T01:43:41.677Z,15.75
2022-09-07T01:44:51.041Z,15.74
2022-09-07T01:45:55.944Z,15.74
2022-09-07T01:47:03.684Z,15.70
2022-09-07T01:48:09.188Z,15.75
2022-09-07T01:49:15.327Z,15.74
2022-09-07T01:50:21.265Z,15.75
2022-09-07T01:51:31.709Z,15.75
2022-09-07T01:52:40.709Z,15.74
2022-09-07T01:53:49.749Z,15.75
2022-09-07T01:54:58.633Z,15.76
2022-09-07T01:56:06.173Z,15.75
2022-09-07T01:57:13.423Z,15.76
2022-09-07T01:58:21.332Z,15.76
2022-09-07T01:59:29.233Z,15.77
2022-09-07T02:00:35.036Z,15.76
2022-09-07T02:01:43.825Z,15.77
2022-09-07T02:02:50.013Z,15.76
2022-09-07T02:03:56.668Z,15.77
2022-09-07T02:05:04.969Z,15.77
2022-09-07T02:06:14.343Z,15.78
2022-09-07T02:07:25.472Z,15.77
2022-09-07T02:08:32.311Z,15.78
2022-09-07T02:09:41.521Z,15.76
2022-09-07T02:10:49.156Z,15.76
2022-09-07T02:11:53.226Z,15.77
2022-09-07T02:13:02.019Z,15.77
2022-09-07T02:14:11.919Z,15.77
2022-09-07T02:15:18.704Z,15.77
2022-09-07T02:16:25.804Z,15.76
2022-09-07T02:17:32.410Z,15.76
2022-09-07T02:18:38.553Z,15.75
2022-09-07T02:19:43.868Z,15.75
2022-09-07T02:20:50.405Z,15.76
2022-09-07T02:21:59.433Z,15.76
2022-09-07T02:23:06.679Z,15.75
2022-09-07T02:24:13.187Z,15.76
2022-09-07T02:25:27.140Z,15.76
2022-09-07T02:26:30.177Z,15.76
2022-09-07T02:27:40.635Z,15.75
2022-09-07T02:28:43.099Z,15.76
2022-09-07T02:29:47.666Z,15.77
2022-09-07T02:30:49.812Z,15.77
2022-09-07T02:31:53.758Z,15.76
2022-09-07T02:32:56.309Z,15.76
2022-09-07T02:34:00.445Z,15.75
2022-09-07T02:35:02.633Z,15.75
2022-09-07T02:36:06.629Z,15.75
2022-09-07T02:37:09.926Z,15.75
2022-09-07T02:38:13.266Z,15.75
2022-09-07T02:39:15.290Z,15.74
2022-09-07T02:40:18.431Z,15.74
2022-09-07T02:41:31.095Z,15.75
2022-09-07T02:42:36.194Z,15.74
2022-09-07T02:43:38.228Z,15.74
2022-09-07T02:44:45.569Z,15.74
2022-09-07T02:46:14.978Z,15.73
2022-09-07T02:47:31.137Z,15.73
2022-09-07T02:48:43.469Z,15.73
2022-09-07T02:50:04.199Z,15.73
2022-09-07T02:51:17.536Z,15.72
2022-09-07T02:52:27.995Z,15.73
2022-09-07T02:53:44.512Z,15.73
2022-09-07T02:55:00.077Z,15.72
2022-09-07T02:56:11.742Z,15.71
2022-09-07T02:57:26.771Z,15.71
2022-09-07T02:58:35.380Z,15.71
2022-09-07T02:59:50.844Z,15.70
2022-09-07T03:01:04.236Z,15.69
2022-09-07T03:02:16.509Z,15.69
2022-09-07T03:03:25.935Z,15.70
2022-09-07T03:04:39.274Z,15.70
2022-09-07T03:05:44.567Z,15.69
2022-09-07T03:06:53.598Z,15.70
2022-09-07T03:08:02.139Z,15.70
2022-09-07T03:09:08.833Z,15.69
2022-09-07T03:10:13.842Z,15.70
2022-09-07T03:11:17.242Z,15.68
2022-09-07T03:12:20.765Z,15.68
2022-09-07T03:13:24.830Z,15.67
2022-09-07T03:14:30.300Z,15.67
2022-09-07T03:15:32.466Z,15.67
2022-09-07T03:16:36.875Z,15.66
2022-09-07T03:17:39.384Z,15.65
2022-09-07T03:18:43.324Z,15.65
2022-09-07T03:19:45.346Z,15.63
2022-09-07T03:20:48.414Z,15.63
2022-09-07T03:21:50.459Z,15.63
2022-09-07T03:22:53.719Z,15.61
2022-09-07T03:23:55.771Z,15.61
2022-09-07T03:24:58.781Z,15.60
2022-09-07T03:26:00.790Z,15.60
2022-09-07T03:27:03.838Z,15.59
2022-09-07T03:28:05.964Z,15.57
2022-09-07T03:29:08.970Z,15.58
2022-09-07T03:30:12.835Z,15.57
2022-09-07T03:31:16.096Z,15.52
2022-09-07T03:32:19.604Z,15.55
2022-09-07T03:33:22.678Z,15.54
2022-09-07T03:34:24.823Z,15.54
2022-09-07T03:35:27.801Z,15.53
2022-09-07T03:36:31.765Z,15.53
2022-09-07T03:37:36.122Z,15.53
2022-09-07T03:38:39.140Z,15.46
2022-09-07T03:39:41.233Z,15.52
2022-09-07T03:40:44.252Z,15.51
2022-09-07T03:41:46.368Z,15.51
2022-09-07T03:42:50.903Z,15.50
2022-09-07T03:43:53.212Z,15.49
2022-09-07T03:44:56.241Z,15.49
2022-09-07T03:45:59.896Z,15.48
2022-09-07T03:47:02.977Z,15.48
2022-09-07T03:48:06.348Z,15.49
2022-09-07T03:49:09.623Z,15.47
2022-09-07T03:50:11.782Z,15.46
2022-09-07T03:51:17.384Z,15.46
2022-09-07T03:52:19.400Z,15.44
2022-09-07T03:53:22.413Z,15.45
2022-09-07T03:54:24.634Z,15.45
2022-09-07T03:55:27.635Z,15.44
2022-09-07T03:56:29.795Z,15.44
2022-09-07T03:57:32.825Z,15.44
2022-09-07T03:58:35.645Z,15.45
2022-09-07T03:59:38.749Z,15.43
2022-09-07T04:00:41.587Z,15.44
2022-09-07T04:01:44.670Z,15.44
2022-09-07T04:02:46.792Z,15.43
2022-09-07T04:03:51.679Z,15.42
2022-09-07T04:04:53.740Z,15.44
2022-09-07T04:05:59.018Z,15.44
2022-09-07T04:07:01.093Z,15.43
2022-09-07T04:08:04.323Z,15.41
2022-09-07T04:09:08.323Z,15.42
2022-09-07T04:10:11.506Z,15.42
2022-09-07T04:11:15.547Z,15.40
2022-09-07T04:12:18.713Z,15.41
2022-09-07T04:13:20.792Z,15.41
2022-09-07T04:14:23.873Z,15.41
2022-09-07T04:15:28.754Z,15.42
2022-09-07T04:16:31.948Z,15.41
2022-09-07T04:17:34.125Z,15.42
2022-09-07T04:18:37.380Z,15.42
2022-09-07T04:19:40.751Z,15.41
2022-09-07T04:20:43.764Z,15.42
2022-09-07T04:21:47.115Z,15.42
2022-09-07T04:22:54.174Z,15.43
2022-09-07T04:23:56.787Z,15.42
2022-09-07T04:24:59.803Z,15.43
2022-09-07T04:26:01.823Z,15.43
2022-09-07T04:27:05.089Z,15.44
2022-09-07T04:28:07.078Z,15.44
2022-09-07T04:29:10.343Z,15.44
2022-09-07T04:30:13.723Z,15.44
2022-09-07T04:31:18.299Z,15.44
2022-09-07T04:32:20.349Z,15.46
2022-09-07T04:33:23.414Z,15.45
2022-09-07T04:34:25.634Z,15.45
2022-09-07T04:35:30.077Z,15.46
2022-09-07T04:36:33.661Z,15.48
2022-09-07T04:37:35.764Z,15.47
2022-09-07T04:38:40.051Z,15.49
2022-09-07T04:39:42.220Z,15.49
2022-09-07T04:40:45.492Z,15.51
2022-09-07T04:41:48.490Z,15.50
2022-09-07T04:42:50.566Z,15.52
2022-09-07T04:43:55.328Z,15.51
2022-09-07T04:44:58.321Z,15.51
2022-09-07T04:46:02.713Z,15.51
2022-09-07T04:47:05.897Z,15.51
2022-09-07T04:48:08.219Z,15.51
2022-09-07T04:49:12.078Z,15.51
2022-09-07T04:50:14.636Z,15.51
2022-09-07T04:51:19.761Z,15.52
2022-09-07T04:52:21.794Z,15.52
2022-09-07T04:53:24.856Z,15.51
2022-09-07T04:54:27.940Z,15.52
2022-09-07T04:55:29.986Z,15.49
2022-09-07T04:56:33.984Z,15.54
2022-09-07T04:57:36.027Z,15.55
2022-09-07T04:58:39.049Z,15.55
2022-09-07T04:59:41.081Z,15.56
2022-09-07T05:00:44.086Z,15.58
2022-09-07T05:01:46.142Z,15.59
2022-09-07T05:02:49.334Z,15.59
2022-09-07T05:03:51.984Z,15.59
2022-09-07T05:04:57.374Z,15.58
2022-09-07T05:06:03.189Z,15.51
2022-09-07T05:07:08.116Z,15.60
2022-09-07T05:08:10.106Z,15.60
2022-09-07T05:09:13.099Z,15.61
2022-09-07T05:10:15.343Z,15.61
2022-09-07T05:11:21.256Z,15.61
2022-09-07T05:12:26.030Z,15.63
2022-09-07T05:13:30.466Z,15.64
2022-09-07T05:14:32.490Z,15.64
2022-09-07T05:15:35.491Z,15.66
2022-09-07T05:16:37.590Z,15.67
2022-09-07T05:17:40.625Z,15.68
2022-09-07T05:18:42.760Z,15.68
2022-09-07T05:19:45.770Z,15.69
2022-09-07T05:20:47.799Z,15.69
2022-09-07T05:21:50.812Z,15.70
2022-09-07T05:22:59.500Z,15.70
2022-09-07T05:24:02.876Z,15.72
2022-09-07T05:25:05.376Z,15.68
2022-09-07T05:26:08.725Z,15.74
2022-09-07T05:27:10.716Z,15.75
2022-09-07T05:28:19.099Z,15.77
2022-09-07T05:32:06.929Z,15.83
2022-09-07T05:33:09.909Z,15.86
2022-09-07T05:34:31.369Z,15.89
2022-09-07T05:35:34.872Z,15.91
2022-09-07T05:36:37.837Z,15.95
2022-09-07T05:37:40.964Z,15.98
2022-09-07T05:38:44.457Z,16.00
2022-09-07T05:39:48.171Z,16.03
2022-09-07T05:40:50.234Z,16.06
2022-09-07T05:41:53.830Z,16.02
2022-09-07T05:42:55.812Z,16.09
2022-09-07T05:45:21.867Z,16.13
2022-09-07T05:46:24.034Z,16.14
2022-09-07T05:47:27.131Z,16.15
2022-09-07T05:48:29.766Z,16.17
2022-09-07T05:49:33.199Z,16.18
2022-09-07T05:50:35.771Z,16.19
2022-09-07T05:51:38.876Z,16.21
2022-09-07T05:52:40.892Z,16.22
2022-09-07T05:53:47.298Z,16.22
2022-09-07T05:54:49.860Z,16.24
2022-09-07T05:55:53.143Z,16.24
2022-09-07T05:56:56.192Z,16.25
2022-09-07T05:57:58.284Z,16.28
2022-09-07T05:59:01.357Z,16.28
2022-09-07T06:00:04.642Z,16.29
2022-09-07T06:01:15.174Z,16.30
2022-09-07T06:02:17.299Z,16.29
2022-09-07T06:03:20.555Z,16.31
2022-09-07T06:04:22.836Z,16.31
2022-09-07T06:05:25.956Z,16.33
2022-09-07T06:06:28.068Z,16.33
2022-09-07T06:07:31.151Z,16.33
2022-09-07T06:08:35.469Z,16.34
2022-09-07T06:11:07.345Z,16.35
2022-09-07T06:12:09.376Z,16.36
2022-09-07T06:13:12.365Z,16.37
2022-09-07T06:14:14.605Z,16.38
2022-09-07T06:15:17.958Z,16.38
2022-09-07T06:16:20.820Z,16.38
2022-09-07T06:17:23.917Z,16.39
2022-09-07T06:18:29.580Z,16.38
2022-09-07T06:19:32.632Z,16.39
2022-09-07T06:20:34.734Z,16.39
2022-09-07T06:21:39.475Z,16.39
2022-09-07T06:22:43.019Z,16.39
2022-09-07T06:23:46.360Z,16.37
2022-09-07T06:24:50.713Z,16.39
2022-09-07T06:25:52.765Z,16.39
2022-09-07T06:26:55.818Z,16.39
2022-09-07T06:27:58.870Z,16.39
2022-09-07T06:29:03.559Z,16.40
2022-09-07T06:30:07.476Z,16.41
2022-09-07T06:31:13.012Z,16.41
2022-09-07T06:33:38.340Z,16.42
2022-09-07T06:34:40.337Z,16.40
2022-09-07T06:35:43.366Z,16.41
2022-09-07T06:36:45.527Z,16.40
2022-09-07T06:37:48.573Z,16.40
2022-09-07T06:38:52.602Z,16.40
2022-09-07T06:39:56.136Z,16.38
2022-09-07T06:42:25.282Z,16.36
2022-09-07T06:43:28.473Z,16.33
2022-09-07T06:44:31.608Z,16.30
2022-09-07T06:45:33.725Z,16.29
2022-09-07T06:47:59.894Z,16.20
2022-09-07T06:49:01.962Z,16.22
2022-09-07T06:50:05.199Z,16.21
2022-09-07T06:51:12.200Z,16.18
2022-09-07T06:52:15.229Z,16.15
2022-09-07T06:56:01.167Z,16.01
2022-09-07T06:57:08.580Z,15.97
2022-09-07T06:58:11.728Z,15.92
2022-09-07T06:59:14.873Z,15.86
2022-09-07T07:00:17.245Z,15.85
2022-09-07T07:01:20.974Z,15.81
2022-09-07T07:02:23.109Z,15.79
2022-09-07T07:03:26.481Z,15.76
2022-09-07T07:04:28.546Z,15.74
2022-09-07T07:05:32.002Z,15.72
2022-09-07T07:06:35.048Z,15.69
2022-09-07T07:07:38.058Z,15.68
2022-09-07T07:08:40.457Z,15.64
2022-09-07T07:09:43.532Z,15.62
2022-09-07T07:10:45.747Z,15.60
2022-09-07T07:11:50.292Z,15.57
2022-09-07T07:12:57.461Z,15.54
2022-09-07T07:14:01.306Z,15.52
2022-09-07T07:15:03.483Z,15.48
2022-09-07T07:16:10.546Z,15.50
2022-09-07T07:17:12.896Z,15.46
2022-09-07T07:18:21.270Z,15.43
2022-09-07T07:19:24.528Z,15.39
2022-09-07T07:20:26.607Z,15.37
2022-09-07T07:21:42.956Z,15.32
2022-09-07T07:22:52.087Z,15.30
2022-09-07T07:23:55.155Z,15.29
2022-09-07T07:24:57.195Z,15.27
2022-09-07T07:26:02.920Z,15.25
2022-09-07T07:27:06.701Z,15.24
2022-09-07T07:29:32.986Z,15.20
2022-09-07T07:30:35.130Z,15.18
2022-09-07T07:31:38.130Z,15.18
2022-09-07T07:32:40.575Z,15.15
2022-09-07T07:33:43.960Z,15.14
2022-09-07T07:34:46.170Z,15.12
2022-09-07T07:35:49.212Z,15.10
2022-09-07T07:36:51.191Z,15.10
2022-09-07T07:40:39.981Z,14.99
2022-09-07T07:42:03.011Z,14.95
2022-09-07T07:43:08.207Z,14.90
2022-09-07T07:44:10.424Z,14.89
2022-09-07T07:46:37.557Z,14.82
2022-09-07T07:47:39.565Z,14.82
2022-09-07T07:48:42.874Z,14.78
2022-09-07T07:49:44.947Z,14.76
2022-09-07T07:50:58.307Z,14.72
2022-09-07T07:54:46.378Z,14.57
2022-09-07T07:55:49.552Z,14.56
2022-09-07T07:56:52.505Z,14.52
2022-09-07T07:57:54.444Z,14.51
2022-09-07T07:58:58.802Z,14.51
2022-09-07T08:00:00.856Z,14.50
2022-09-07T08:01:08.600Z,14.51
2022-09-07T08:02:15.167Z,14.52
2022-09-07T08:03:18.293Z,14.53
2022-09-07T08:04:20.474Z,14.54
2022-09-07T08:05:23.456Z,14.53
2022-09-07T08:06:26.966Z,14.53
2022-09-07T08:07:29.014Z,14.52
2022-09-07T08:08:31.978Z,14.52
2022-09-07T08:09:34.018Z,14.52
2022-09-07T08:10:37.071Z,14.51
2022-09-07T08:11:40.571Z,14.52
2022-09-07T08:12:42.853Z,14.50
2022-09-07T08:13:47.318Z,14.48
2022-09-07T08:14:50.646Z,14.47
2022-09-07T08:15:53.677Z,14.44
2022-09-07T08:16:55.648Z,14.43
2022-09-07T08:17:58.931Z,14.42
2022-09-07T08:19:02.550Z,14.42
2022-09-07T08:20:07.642Z,14.41
2022-09-07T08:21:13.514Z,14.43
2022-09-07T08:22:16.470Z,14.41
2022-09-07T08:23:20.369Z,14.39
2022-09-07T08:24:23.357Z,14.41
2022-09-07T08:25:25.502Z,14.41
2022-09-07T08:26:28.679Z,14.42
2022-09-07T08:27:31.629Z,14.44
2022-09-07T08:28:37.230Z,14.43
2022-09-07T08:29:39.236Z,14.44
2022-09-07T08:30:43.762Z,14.47
2022-09-07T08:31:46.147Z,14.47
2022-09-07T08:32:49.234Z,14.49
2022-09-07T08:33:52.177Z,14.51
2022-09-07T08:34:54.066Z,14.51
2022-09-07T08:36:01.982Z,14.52
2022-09-07T08:37:04.961Z,14.51
2022-09-07T08:38:07.233Z,14.51
2022-09-07T08:39:10.124Z,14.51
2022-09-07T08:40:16.395Z,14.52
2022-09-07T08:41:58.653Z,14.52
2022-09-07T08:43:09.058Z,14.52
2022-09-07T08:44:16.915Z,14.50
2022-09-07T08:45:25.919Z,14.51
2022-09-07T08:46:36.444Z,14.53
2022-09-07T08:47:44.573Z,14.53
2022-09-07T08:48:47.312Z,14.55
2022-09-07T08:49:54.288Z,14.55
2022-09-07T08:51:00.872Z,14.57
2022-09-07T08:52:06.345Z,14.58
2022-09-07T08:53:13.225Z,14.58
2022-09-07T08:54:17.790Z,14.61
2022-09-07T08:55:26.779Z,14.62
2022-09-07T08:56:33.979Z,14.51
2022-09-07T08:57:41.279Z,14.64
2022-09-07T08:58:49.482Z,14.64
2022-09-07T09:00:03.798Z,14.65
2022-09-07T09:02:43.517Z,14.68
2022-09-07T09:05:24.206Z,14.70
2022-09-07T09:06:39.396Z,14.71
2022-09-07T09:07:49.489Z,14.68
2022-09-07T09:09:06.224Z,14.67
2022-09-07T09:10:27.408Z,14.65
2022-09-07T09:11:43.658Z,14.63
2022-09-07T09:13:02.287Z,14.61
2022-09-07T09:14:11.544Z,14.59
2022-09-07T09:15:21.266Z,14.57
2022-09-07T09:16:33.752Z,14.55
2022-09-07T09:17:42.321Z,14.55
2022-09-07T09:19:00.772Z,14.56
2022-09-07T09:20:16.505Z,14.58
2022-09-07T09:21:21.087Z,14.62
2022-09-07T09:22:26.557Z,14.63
2022-09-07T09:23:34.735Z,14.65
2022-09-07T09:24:41.349Z,14.67
2022-09-07T09:25:52.069Z,14.71
2022-09-07T09:26:56.605Z,14.73
2022-09-07T09:27:59.496Z,14.73
2022-09-07T09:29:13.590Z,14.79
2022-09-07T09:30:17.734Z,14.83
2022-09-07T09:31:22.676Z,14.88
2022-09-07T09:32:32.891Z,14.98
2022-09-07T09:33:37.148Z,15.06
2022-09-07T09:34:39.029Z,15.12
2022-09-07T09:35:42.691Z,15.22
2022-09-07T09:36:46.715Z,15.32
2022-09-07T09:37:49.675Z,15.41
2022-09-07T09:38:51.785Z,15.50
2022-09-07T09:40:02.234Z,15.60
2022-09-07T09:41:08.124Z,15.69
2022-09-07T09:42:23.353Z,15.77
2022-09-07T09:43:34.395Z,15.90
2022-09-07T09:44:38.420Z,16.01
2022-09-07T09:47:30.182Z,16.22
2022-09-07T09:48:35.634Z,16.28
2022-09-07T09:49:40.631Z,16.41
2022-09-07T09:52:45.126Z,16.54
2022-09-07T09:53:59.788Z,16.60
2022-09-07T09:55:23.704Z,16.65
2022-09-07T09:56:38.485Z,16.68
2022-09-07T10:01:21.060Z,16.74
2022-09-07T10:03:57.278Z,16.85
2022-09-07T10:05:20.867Z,16.91
2022-09-07T10:06:23.052Z,16.96
2022-09-07T10:07:28.883Z,17.00
2022-09-07T10:08:34.041Z,17.05
2022-09-07T10:09:38.256Z,17.08
2022-09-07T10:10:52.274Z,17.09
2022-09-07T10:12:08.002Z,17.13
2022-09-07T10:13:20.663Z,17.19
2022-09-07T10:14:28.719Z,17.25
2022-09-07T10:15:40.106Z,17.32
2022-09-07T10:16:44.906Z,17.42
2022-09-07T10:17:49.790Z,17.50
2022-09-07T10:18:57.547Z,17.60
2022-09-07T10:20:01.794Z,17.67
2022-09-07T10:21:23.990Z,17.76
2022-09-07T10:22:34.116Z,17.85
2022-09-07T10:23:37.090Z,17.93
2022-09-07T10:24:40.186Z,17.98
2022-09-07T10:25:45.202Z,18.07
2022-09-07T10:26:48.695Z,18.15
2022-09-07T10:28:02.305Z,18.22
2022-09-07T10:29:13.052Z,18.29
2022-09-07T10:30:17.709Z,18.33
2022-09-07T10:31:25.366Z,18.39
2022-09-07T10:32:42.689Z,18.43
2022-09-07T10:35:21.428Z,18.53
2022-09-07T10:36:34.850Z,18.58
2022-09-07T10:37:48.710Z,18.63
2022-09-07T10:38:59.918Z,18.68
2022-09-07T10:40:18.001Z,18.72
2022-09-07T10:41:42.170Z,18.75
2022-09-07T10:44:20.087Z,18.75
2022-09-07T10:45:32.132Z,18.74
2022-09-07T10:46:57.718Z,18.73
2022-09-07T10:48:10.946Z,18.72
2022-09-07T10:49:24.798Z,18.72
2022-09-07T10:50:31.836Z,18.75
2022-09-07T10:51:44.885Z,18.77
2022-09-07T10:52:53.371Z,18.81
2022-09-07T10:55:33.608Z,18.90
2022-09-07T10:56:43.094Z,18.96
2022-09-07T10:58:02.857Z,19.01
2022-09-07T10:59:26.774Z,19.08
2022-09-07T11:00:36.425Z,19.15
2022-09-07T11:01:48.740Z,19.22
2022-09-07T11:04:44.296Z,19.37
2022-09-07T11:06:00.106Z,19.44
2022-09-07T11:07:14.906Z,19.49
2022-09-07T11:09:14.546Z,19.55
2022-09-07T11:10:02.397Z,19.64
2022-09-07T11:11:15.828Z,19.74
2022-09-07T11:12:23.848Z,19.84
2022-09-07T11:13:55.446Z,19.94
2022-09-07T11:15:10.683Z,20.07
2022-09-07T11:17:52.059Z,20.24
2022-09-07T11:20:29.452Z,20.32
2022-09-07T11:22:03.342Z,20.33
2022-09-07T11:23:16.487Z,20.34
2022-09-07T11:24:24.939Z,20.37
2022-09-07T11:25:32.456Z,20.41
2022-09-07T11:26:37.759Z,20.46
2022-09-07T11:27:46.231Z,20.52
2022-09-07T11:30:24.890Z,20.67
2022-09-07T11:31:34.655Z,20.75
2022-09-07T11:32:42.565Z,20.81
2022-09-07T11:35:26.041Z,20.91
2022-09-07T11:36:34.691Z,20.94
2022-09-07T11:37:47.834Z,20.97
2022-09-07T11:38:58.547Z,21.00
2022-09-07T11:40:07.708Z,21.03
2022-09-07T11:41:33.591Z,21.05
2022-09-07T11:42:44.232Z,21.10
2022-09-07T11:44:02.567Z,21.11
2022-09-07T11:45:12.876Z,21.10
2022-09-07T11:46:22.996Z,21.12
2022-09-07T11:47:31.043Z,21.14
2022-09-07T11:48:40.245Z,21.18
2022-09-07T11:49:42.176Z,21.22
2022-09-07T11:50:51.247Z,21.27
2022-09-07T11:51:58.706Z,21.33
2022-09-07T11:53:12.366Z,21.40
2022-09-07T11:54:35.910Z,21.47
2022-09-07T11:55:41.916Z,21.54
2022-09-07T11:56:51.737Z,21.59
2022-09-07T11:58:16.396Z,21.65
2022-09-07T11:59:37.414Z,21.72
2022-09-07T12:00:48.412Z,21.76
2022-09-07T12:02:10.465Z,21.80
2022-09-07T12:03:38.323Z,21.83
2022-09-07T12:04:59.502Z,21.85
2022-09-07T12:06:28.255Z,21.90
2022-09-07T12:07:48.664Z,21.96
2022-09-07T12:09:22.400Z,22.03
2022-09-07T12:10:54.218Z,22.08
2022-09-07T12:12:22.174Z,22.13
2022-09-07T12:13:48.650Z,22.15
2022-09-07T12:15:04.693Z,22.18
2022-09-07T12:16:14.554Z,22.22
2022-09-07T12:17:32.492Z,22.26
2022-09-07T12:18:58.143Z,22.30
2022-09-07T12:20:18.057Z,22.33
2022-09-07T12:21:41.314Z,22.37
2022-09-07T12:23:03.647Z,22.40
2022-09-07T12:24:44.179Z,22.47
2022-09-07T12:25:49.108Z,22.52
2022-09-07T12:26:52.590Z,22.57
2022-09-07T12:27:55.806Z,22.62
2022-09-07T12:29:20.523Z,22.66
2022-09-07T12:31:00.587Z,22.72
2022-09-07T12:33:32.395Z,22.78
2022-09-07T12:34:46.404Z,22.83
2022-09-07T12:35:49.496Z,22.89
2022-09-07T12:36:51.424Z,22.93
2022-09-07T12:37:54.606Z,22.99
2022-09-07T12:39:08.215Z,23.04
2022-09-07T12:40:59.068Z,23.09
2022-09-07T12:42:39.220Z,23.14
2022-09-07T12:44:07.100Z,23.14
2022-09-07T12:45:58.078Z,23.14
2022-09-07T12:47:02.076Z,23.14
2022-09-07T12:48:12.593Z,23.14
2022-09-07T12:49:33.859Z,23.15
2022-09-07T12:50:42.427Z,23.16
2022-09-07T12:52:13.852Z,23.11
2022-09-07T12:53:29.356Z,23.25
2022-09-07T12:54:37.933Z,23.29
2022-09-07T12:56:17.231Z,23.34
2022-09-07T12:57:33.030Z,23.41
2022-09-07T12:58:48.288Z,23.49
2022-09-07T13:00:05.443Z,23.61
2022-09-07T13:01:20.294Z,23.68
2022-09-07T13:02:41.642Z,23.90
2022-09-07T13:04:07.824Z,24.13
2022-09-07T13:05:22.606Z,24.41
2022-09-07T13:08:29.301Z,24.99
2022-09-07T13:09:34.198Z,25.26
2022-09-07T13:10:39.066Z,25.45
2022-09-07T13:11:41.637Z,25.62
2022-09-07T13:12:57.527Z,25.79
2022-09-07T13:14:04.757Z,25.98
2022-09-07T13:15:40.672Z,26.19
2022-09-07T13:18:12.574Z,26.46
2022-09-07T13:19:17.486Z,26.56
2022-09-07T13:20:30.206Z,26.59
2022-09-07T13:21:40.076Z,26.49
2022-09-07T13:22:57.211Z,26.39
2022-09-07T13:24:50.191Z,26.21
2022-09-07T13:26:00.292Z,25.97
2022-09-07T13:27:08.012Z,25.84
2022-09-07T13:28:21.836Z,25.71
2022-09-07T13:29:31.350Z,25.58
2022-09-07T13:30:48.954Z,25.39
2022-09-07T13:32:04.582Z,25.24
2022-09-07T13:33:42.914Z,25.07
2022-09-07T13:34:51.024Z,24.94
2022-09-07T13:35:55.188Z,24.84
2022-09-07T13:36:58.985Z,24.75
2022-09-07T13:38:02.821Z,24.66
2022-09-07T13:39:11.476Z,24.56
2022-09-07T13:40:20.983Z,24.48
2022-09-07T13:41:27.523Z,24.36
2022-09-07T13:42:32.597Z,24.31
2022-09-07T13:43:35.013Z,24.25
2022-09-07T13:44:37.918Z,24.20
2022-09-07T13:45:56.996Z,24.14
2022-09-07T13:47:12.707Z,24.10
2022-09-07T13:48:25.257Z,24.05
2022-09-07T13:49:59.500Z,24.03
2022-09-07T13:51:07.698Z,24.01
2022-09-07T13:52:18.439Z,24.02
2022-09-07T13:53:43.510Z,24.02
2022-09-07T13:54:58.540Z,24.03
2022-09-07T13:56:14.145Z,24.04
2022-09-07T13:57:27.074Z,24.04
2022-09-07T13:58:34.554Z,24.04
2022-09-07T13:59:37.523Z,24.02
2022-09-07T14:00:53.141Z,23.98
2022-09-07T14:01:56.215Z,23.93
2022-09-07T14:03:05.686Z,23.90
2022-09-07T14:04:21.533Z,23.89
2022-09-07T14:05:24.513Z,23.88
2022-09-07T14:06:32.616Z,23.90
2022-09-07T14:07:35.651Z,23.94
2022-09-07T14:08:39.830Z,23.95
2022-09-07T14:09:42.947Z,24.03
2022-09-07T14:10:47.970Z,24.08
2022-09-07T14:11:52.500Z,24.15
2022-09-07T14:13:06.265Z,24.19
2022-09-07T14:14:12.296Z,24.22
2022-09-07T14:15:20.972Z,24.24
2022-09-07T14:16:24.277Z,24.25
2022-09-07T14:17:28.949Z,24.25
2022-09-07T14:18:32.911Z,24.26
2022-09-07T14:19:40.043Z,24.27
2022-09-07T14:20:45.429Z,24.28
2022-09-07T14:21:59.729Z,24.29
2022-09-07T14:23:02.676Z,24.33
2022-09-07T14:24:14.360Z,24.38
2022-09-07T14:25:22.066Z,24.35
2022-09-07T14:26:24.326Z,24.48
2022-09-07T14:27:34.265Z,24.52
2022-09-07T14:28:37.796Z,24.53
2022-09-07T14:29:40.724Z,24.52
2022-09-07T14:30:42.855Z,24.48
2022-09-07T14:31:47.197Z,24.44
2022-09-07T14:32:52.479Z,24.39
2022-09-07T14:33:57.790Z,24.36
2022-09-07T14:35:00.030Z,24.32
2022-09-07T14:36:17.824Z,24.29
2022-09-07T14:37:27.169Z,24.26
2022-09-07T14:39:56.846Z,24.21
2022-09-07T14:41:00.998Z,24.21
2022-09-07T14:42:04.857Z,24.18
2022-09-07T14:43:27.932Z,24.18
2022-09-07T14:44:36.137Z,24.17
2022-09-07T14:45:39.677Z,24.15
2022-09-07T14:46:53.095Z,24.11
2022-09-07T14:47:58.344Z,24.08
2022-09-07T14:49:02.657Z,24.03
2022-09-07T14:50:06.919Z,23.99
2022-09-07T14:51:29.676Z,23.94
2022-09-07T14:52:42.465Z,23.92
2022-09-07T14:53:47.944Z,23.90
2022-09-07T14:54:55.698Z,23.92
2022-09-07T14:56:02.108Z,23.91
2022-09-07T14:57:08.365Z,23.92
2022-09-07T14:58:22.842Z,23.90
2022-09-07T14:59:28.223Z,23.91
2022-09-07T15:00:34.205Z,23.91
2022-09-07T15:01:37.711Z,23.91
2022-09-07T15:02:41.362Z,23.90
2022-09-07T15:03:58.041Z,23.90
2022-09-07T15:05:26.053Z,23.88
2022-09-07T15:08:03.960Z,23.84
2022-09-07T15:09:07.266Z,23.86
2022-09-07T15:10:14.084Z,23.84
2022-09-07T15:11:33.497Z,23.83
2022-09-07T15:12:43.070Z,23.81
2022-09-07T15:13:53.630Z,23.81
2022-09-07T15:14:55.626Z,23.78
2022-09-07T15:16:01.358Z,23.76
2022-09-07T15:18:52.429Z,23.71
2022-09-07T15:19:55.426Z,23.71
2022-09-07T15:20:57.634Z,23.68
2022-09-07T15:22:11.466Z,23.67
2022-09-07T15:23:15.587Z,23.66
2022-09-07T15:24:17.492Z,23.63
2022-09-07T15:25:20.429Z,23.62
2022-09-07T15:27:49.664Z,23.55
2022-09-07T15:29:08.488Z,23.54